Time;durP1;ratioP1;P1;durP2;ratioP2;P2;SDS_P1;SDS_P2;PMS_P1;PMS_P2;Temp;Humidity;BMP_temperature;BMP_pressure;BME280_temperature;BME280_humidity;BME280_pressure;Samples;Min_cycle;Max_cycle;Signal;HPM_P1;HPM_P2
2022/04/09 00:03:27;;;;;;;10.30;7.00;;;;;;;5.08;67.36;97346.42;447718;1267;295111;-63
2022/04/09 00:13:33;;;;;;;9.70;8.10;;;;;;;5.04;67.71;97339.49;447202;1268;141980;-62
2022/04/09 00:23:39;;;;;;;10.40;7.90;;;;;;;4.99;68.00;97337.39;447966;1269;141484;-63
2022/04/09 00:33:45;;;;;;;12.80;10.80;;;;;;;4.98;68.27;97332.48;447222;1269;141460;-63
2022/04/09 00:43:51;;;;;;;12.80;9.20;;;;;;;4.99;68.70;97326.11;447923;1269;141675;-63
2022/04/09 00:53:57;;;;;;;9.70;8.10;;;;;;;4.99;68.77;97340.41;447805;1268;142700;-65
2022/04/09 01:04:08;;;;;;;10.30;8.80;;;;;;;4.97;69.06;97324.39;447207;1268;141407;-65
2022/04/09 01:14:14;;;;;;;8.90;7.50;;;;;;;4.90;69.63;97318.36;447940;1268;142647;-66
2022/04/09 01:24:19;;;;;;;9.90;7.80;;;;;;;4.85;69.94;97328.95;447879;1268;141117;-65
2022/04/09 01:34:25;;;;;;;9.60;7.40;;;;;;;4.85;70.00;97317.33;447136;1268;142551;-65
2022/04/09 01:44:31;;;;;;;11.70;7.40;;;;;;;4.85;70.59;97303.64;447897;1268;141149;-65
2022/04/09 01:54:37;;;;;;;9.70;7.20;;;;;;;4.83;70.54;97298.79;447111;1268;142861;-65
2022/04/09 02:04:42;;;;;;;7.70;6.80;;;;;;;4.80;70.75;97276.13;447894;1268;141554;-65
2022/04/09 02:14:48;;;;;;;10.20;8.10;;;;;;;4.80;71.23;97290.90;447814;1269;142681;-65
2022/04/09 02:24:54;;;;;;;10.50;8.40;;;;;;;4.83;71.48;97289.02;442795;1268;141464;-65
2022/04/09 02:35:03;;;;;;;13.30;8.60;;;;;;;4.87;71.42;97313.20;447895;1269;141671;-66
2022/04/09 02:45:12;;;;;;;8.10;7.20;;;;;;;4.96;71.68;97334.86;447614;1270;142687;-65
2022/04/09 02:55:18;;;;;;;9.20;7.40;;;;;;;4.96;72.07;97352.90;447058;1269;141032;-65
2022/04/09 03:05:23;;;;;;;10.70;8.90;;;;;;;4.97;72.32;97350.18;447919;1269;192792;-65
2022/04/09 03:15:29;;;;;;;10.60;9.60;;;;;;;4.98;72.60;97347.55;445742;1269;140159;-65
2022/04/09 03:25:35;;;;;;;10.20;8.10;;;;;;;4.96;72.66;97360.24;447596;1270;143572;-65
2022/04/09 03:35:42;;;;;;;8.50;5.90;;;;;;;4.86;72.77;97371.34;447843;1269;142004;-64
2022/04/09 03:45:48;;;;;;;6.80;5.40;;;;;;;4.69;72.65;97375.17;447122;1268;141232;-65
2022/04/09 03:55:54;;;;;;;5.20;4.80;;;;;;;4.55;72.83;97389.59;447840;1268;141623;-64
2022/04/09 04:06:01;;;;;;;6.30;5.80;;;;;;;4.51;73.15;97388.85;447893;1268;141925;-64
2022/04/09 04:16:08;;;;;;;6.30;5.70;;;;;;;4.28;73.11;97389.83;447108;1269;141264;-64
2022/04/09 04:26:12;;;;;;;;;;;;;;;3.97;72.90;97408.71;439994;1271;141402;-65
2022/04/09 04:36:18;;;;;;;6.70;5.20;;;;;;;3.78;73.09;97430.47;434385;1269;127351;-64
2022/04/09 04:46:24;;;;;;;8.70;5.30;;;;;;;3.48;73.21;97416.25;438672;1269;140436;-64
2022/04/09 04:56:30;;;;;;;7.50;4.90;;;;;;;3.30;73.35;97418.02;447857;1268;141600;-65
2022/04/09 05:06:36;;;;;;;6.00;4.90;;;;;;;3.19;73.67;97435.02;447069;1268;142012;-63
2022/04/09 05:16:42;;;;;;;7.30;5.30;;;;;;;3.26;73.87;97457.07;447906;1268;140979;-64
2022/04/09 05:26:48;;;;;;;7.40;6.30;;;;;;;3.46;74.00;97483.16;447846;1268;142307;-66
2022/04/09 05:36:53;;;;;;;10.60;5.30;;;;;;;3.76;74.00;97496.19;435934;1270;143207;-66
2022/04/09 05:47:00;;;;;;;7.00;4.90;;;;;;;3.97;73.78;97497.02;444088;1270;141740;-65
2022/04/09 05:57:06;;;;;;;7.80;6.20;;;;;;;4.12;73.36;97503.52;447868;1268;141909;-65
2022/04/09 06:07:13;;;;;;;6.10;5.40;;;;;;;4.26;72.97;97504.50;447116;1268;141532;-65
2022/04/09 06:17:19;;;;;;;8.30;6.20;;;;;;;4.51;72.60;97509.95;447590;1270;142030;-65
2022/04/09 06:27:25;;;;;;;6.30;5.60;;;;;;;4.85;72.45;97530.25;447885;1268;140727;-65
2022/04/09 06:37:30;;;;;;;10.30;6.40;;;;;;;4.97;72.11;97559.48;447086;1268;141991;-65
2022/04/09 06:47:39;;;;;;;4.90;4.50;;;;;;;5.23;71.92;97591.45;447982;1268;152612;-66
2022/04/09 06:57:45;;;;;;;13.50;7.60;;;;;;;5.27;71.47;97617.19;447291;1268;141967;-64
2022/04/09 07:07:51;;;;;;;10.70;7.90;;;;;;;5.41;71.36;97640.62;448005;1267;142397;-65
2022/04/09 07:17:56;;;;;;;8.30;5.20;;;;;;;5.86;70.84;97660.55;447956;1268;141761;-65
2022/04/09 07:28:02;;;;;;;9.90;5.70;;;;;;;6.13;69.84;97688.08;446863;1269;141754;-65
2022/04/09 07:38:08;;;;;;;7.70;6.90;;;;;;;6.34;69.08;97730.83;447951;1265;143890;-66
2022/04/09 07:48:15;;;;;;;6.40;5.30;;;;;;;6.38;69.15;97767.90;447881;1267;142310;-65
2022/04/09 07:58:22;;;;;;;5.70;4.70;;;;;;;6.63;68.19;97803.53;447125;1267;144065;-66
2022/04/09 08:08:28;;;;;;;5.70;4.00;;;;;;;6.96;67.25;97815.14;447855;1268;143160;-65
2022/04/09 08:18:34;;;;;;;8.40;4.60;;;;;;;7.00;65.85;97834.83;447848;1268;142330;-65
2022/04/09 08:28:41;;;;;;;5.20;3.20;;;;;;;7.19;65.32;97841.88;447909;1267;141783;-66
2022/04/09 08:38:47;;;;;;;6.40;3.60;;;;;;;9.26;63.06;97825.95;447980;1267;142020;-64
2022/04/09 08:48:53;;;;;;;3.40;2.70;;;;;;;9.76;58.57;97822.29;445674;1267;141633;-64
2022/04/09 08:59:01;;;;;;;4.40;2.10;;;;;;;10.36;57.25;97850.54;447957;1267;140149;-65
2022/04/09 09:09:05;;;;;;;;;;;;;;;11.10;55.59;97877.94;448115;1267;141736;-64
2022/04/09 09:19:11;;;;;;;5.50;2.00;;;;;;;10.75;52.14;97889.70;442427;1267;128468;-64
2022/04/09 09:29:28;;;;;;;6.70;2.70;;;;;;;9.21;52.87;97908.30;430851;1268;141436;-65
2022/04/09 09:39:43;;;;;;;3.60;1.80;;;;;;;9.28;53.66;97938.21;444516;1269;140157;-66
2022/04/09 09:49:57;;;;;;;4.50;1.70;;;;;;;8.74;53.50;97952.82;447852;1267;141613;-66
2022/04/09 10:00:10;;;;;;;4.80;2.00;;;;;;;8.48;53.88;97981.95;448024;1267;142024;-63
2022/04/09 10:10:16;;;;;;;3.20;2.00;;;;;;;8.93;54.24;97980.52;444663;1267;141056;-61
2022/04/09 10:20:25;;;;;;;3.90;2.60;;;;;;;9.28;53.17;98004.90;447911;1268;140164;-61
2022/04/09 10:30:39;;;;;;;5.10;2.10;;;;;;;9.91;53.14;98016.02;443677;1267;141377;-61
2022/04/09 10:41:28;;;;;;;3.70;1.50;;;;;;;9.95;51.31;98022.82;446004;1267;141235;-60
2022/04/09 10:52:20;;;;;;;4.80;2.70;;;;;;;9.76;50.37;98034.58;441424;1267;140401;-60
2022/04/09 11:02:26;;;;;;;1.70;1.50;;;;;;;10.13;48.49;98061.39;447900;1267;141600;-60
2022/04/09 11:12:43;;;;;;;3.40;2.00;;;;;;;10.11;46.42;98074.09;447461;1269;142667;-61
2022/04/09 11:22:51;;;;;;;1.50;1.20;;;;;;;10.38;45.46;98083.36;447879;1267;142566;-60
2022/04/09 11:32:57;;;;;;;1.80;1.20;;;;;;;10.84;44.27;98104.94;447689;1269;140960;-60
2022/04/09 11:43:03;;;;;;;4.20;2.20;;;;;;;11.00;43.41;98108.10;444445;1267;141845;-59
2022/04/09 11:53:13;;;;;;;2.30;1.00;;;;;;;10.69;43.27;98112.55;432237;1268;141303;-60
2022/04/09 12:03:19;;;;;;;2.60;1.90;;;;;;;10.69;43.38;98132.86;447727;1265;300817;-61
2022/04/09 12:13:29;;;;;;;8.30;2.10;;;;;;;10.43;43.30;98141.36;447335;1267;140871;-61
2022/04/09 12:23:36;;;;;;;3.60;1.30;;;;;;;10.58;43.42;98140.27;447763;1268;140710;-60
2022/04/09 12:33:59;;;;;;;4.00;1.40;;;;;;;10.31;42.06;98145.21;446983;1267;140708;-60
2022/04/09 12:44:29;;;;;;;3.00;1.50;;;;;;;10.68;41.91;98150.90;447764;1268;141463;-61
2022/04/09 12:54:35;;;;;;;4.60;1.50;;;;;;;10.62;41.71;98166.99;447908;1267;141237;-63
2022/04/09 13:04:41;;;;;;;5.00;2.10;;;;;;;10.39;40.79;98178.91;447577;1267;207439;-63
2022/04/09 13:14:47;;;;;;;8.30;3.00;;;;;;;10.46;40.66;98196.34;447983;1267;142574;-63
2022/04/09 13:24:53;;;;;;;3.40;2.20;;;;;;;10.31;40.89;98200.98;447319;1266;142192;-65
2022/04/09 13:34:59;;;;;;;2.10;1.60;;;;;;;10.34;39.67;98212.38;448097;1266;140756;-63
2022/04/09 13:45:06;;;;;;;3.90;2.40;;;;;;;10.10;39.13;98236.14;448130;1267;141796;-64
2022/04/09 13:55:12;;;;;;;4.00;2.00;;;;;;;10.02;38.92;98236.05;447332;1267;141148;-64
2022/04/09 14:05:19;;;;;;;4.00;2.40;;;;;;;10.22;38.60;98230.58;439206;1265;141490;-63
2022/04/09 14:15:25;;;;;;;4.30;1.90;;;;;;;9.91;38.20;98243.59;448109;1267;142582;-63
2022/04/09 14:25:31;;;;;;;1.20;1.10;;;;;;;9.83;38.22;98243.77;447157;1269;141134;-64
2022/04/09 14:35:38;;;;;;;1.30;1.00;;;;;;;9.93;37.55;98239.80;445906;1267;140543;-63
2022/04/09 14:45:45;;;;;;;3.20;2.10;;;;;;;9.86;37.47;98240.85;438709;1266;140497;-64
2022/04/09 14:55:51;;;;;;;2.70;2.00;;;;;;;9.77;37.18;98244.27;435618;1267;141042;-63
2022/04/09 15:06:00;;;;;;;2.70;1.60;;;;;;;9.57;36.65;98255.82;442298;1266;140942;-62
2022/04/09 15:16:06;;;;;;;1.50;1.30;;;;;;;9.44;36.86;98259.24;445009;1268;140860;-64
2022/04/09 15:26:13;;;;;;;3.10;1.50;;;;;;;9.41;36.34;98275.42;445282;1267;140479;-63
2022/04/09 15:36:19;;;;;;;4.40;1.70;;;;;;;9.22;36.27;98280.60;447650;1267;141238;-63
2022/04/09 15:46:25;;;;;;;3.00;1.90;;;;;;;8.69;36.36;98292.39;437314;1267;140243;-65
2022/04/09 15:56:31;;;;;;;5.00;2.30;;;;;;;8.39;36.72;98300.19;447802;1267;141065;-64
2022/04/09 16:06:38;;;;;;;4.90;1.70;;;;;;;8.10;36.73;98313.95;447184;1267;162086;-64
2022/04/09 16:16:43;;;;;;;3.60;1.90;;;;;;;7.96;36.38;98319.73;447960;1267;142159;-65
2022/04/09 16:26:49;;;;;;;4.80;1.20;;;;;;;7.74;36.66;98322.02;448053;1266;140878;-65
2022/04/09 16:36:55;;;;;;;1.20;1.10;;;;;;;7.48;36.72;98334.68;447279;1267;140878;-65
2022/04/09 16:47:01;;;;;;;2.20;1.70;;;;;;;7.19;37.29;98341.55;447876;1267;141106;-67
2022/04/09 16:57:08;;;;;;;4.70;2.00;;;;;;;6.95;37.79;98348.59;448108;1267;141080;-65
2022/04/09 17:07:14;;;;;;;7.00;2.50;;;;;;;6.66;38.38;98354.56;447255;1267;141503;-61
2022/04/09 17:17:20;;;;;;;2.70;1.40;;;;;;;6.36;39.16;98370.14;447893;1267;140394;-60
2022/04/09 17:27:26;;;;;;;8.00;2.00;;;;;;;6.03;39.96;98385.08;448051;1268;140838;-61
2022/04/09 17:37:34;;;;;;;3.70;1.80;;;;;;;5.68;40.63;98401.34;447344;1267;141653;-61
2022/04/09 17:47:40;;;;;;;5.10;4.20;;;;;;;5.29;41.82;98413.59;443557;1268;141049;-61
2022/04/09 17:57:46;;;;;;;5.10;2.50;;;;;;;4.90;42.94;98432.59;437427;1268;140535;-60
2022/04/09 18:07:52;;;;;;;3.80;2.50;;;;;;;4.50;44.02;98451.71;436297;1268;141255;-59
2022/04/09 18:18:18;;;;;;;6.30;3.50;;;;;;;4.10;44.67;98459.27;445708;1268;140892;-60
2022/04/09 18:28:24;;;;;;;6.20;2.70;;;;;;;3.77;45.71;98462.98;445124;1268;140593;-60
2022/04/09 18:38:30;;;;;;;10.10;6.40;;;;;;;3.48;46.44;98473.51;431670;1268;140845;-63
2022/04/09 18:48:37;;;;;;;8.80;5.90;;;;;;;3.22;47.00;98480.92;445564;1268;141446;-64
2022/04/09 18:58:43;;;;;;;18.40;9.80;;;;;;;2.94;48.66;98494.57;448078;1267;141259;-64
2022/04/09 19:08:49;;;;;;;21.50;14.30;;;;;;;2.76;49.36;98499.98;448170;1265;140009;-64
2022/04/09 19:18:55;;;;;;;20.90;11.30;;;;;;;2.51;50.16;98508.80;447388;1267;141221;-64
2022/04/09 19:29:01;;;;;;;17.40;13.30;;;;;;;2.33;50.75;98514.66;446331;1268;142536;-63
2022/04/09 19:39:09;;;;;;;24.50;12.90;;;;;;;2.24;51.56;98517.83;445419;1269;141315;-63
2022/04/09 19:49:15;;;;;;;20.70;12.40;;;;;;;2.16;52.48;98525.13;442569;1268;141841;-64
2022/04/09 19:59:21;;;;;;;17.70;12.30;;;;;;;2.13;53.76;98534.39;431122;1268;140925;-64
2022/04/09 20:09:28;;;;;;;20.20;16.40;;;;;;;2.25;55.64;98564.05;448086;1268;141275;-64
2022/04/09 20:19:34;;;;;;;18.10;11.00;;;;;;;2.35;56.26;98587.44;447326;1267;141617;-64
2022/04/09 20:29:40;;;;;;;13.00;8.40;;;;;;;2.22;56.91;98581.08;448082;1267;141891;-64
2022/04/09 20:39:46;;;;;;;11.50;7.20;;;;;;;2.10;57.51;98584.25;447332;1268;141436;-63
2022/04/09 20:49:52;;;;;;;13.20;6.60;;;;;;;1.99;57.85;98587.31;448118;1268;141050;-65
2022/04/09 20:59:58;;;;;;;8.00;4.60;;;;;;;1.92;58.83;98612.13;448122;1268;142039;-63
2022/04/09 21:10:04;;;;;;;8.40;4.60;;;;;;;2.00;59.64;98624.73;431643;1268;141195;-65
2022/04/09 21:20:11;;;;;;;5.90;4.40;;;;;;;1.89;60.62;98631.25;447919;1268;141695;-66
2022/04/09 21:30:17;;;;;;;6.00;3.60;;;;;;;1.75;61.83;98634.98;447909;1268;141809;-66
2022/04/09 21:40:23;;;;;;;7.10;3.30;;;;;;;1.61;62.44;98643.82;442399;1268;141089;-68
2022/04/09 21:50:30;;;;;;;6.80;3.20;;;;;;;1.54;63.27;98656.70;447985;1267;141543;-66
2022/04/09 22:00:45;;;;;;;6.80;2.80;;;;;;;1.50;63.72;98662.41;447287;1267;141810;-63
2022/04/09 22:10:51;;;;;;;5.90;2.60;;;;;;;1.54;64.13;98674.48;448029;1268;141159;-65
2022/04/09 22:20:58;;;;;;;8.60;3.60;;;;;;;1.46;64.18;98681.91;447756;1267;141345;-67
2022/04/09 22:31:04;;;;;;;5.10;3.60;;;;;;;1.38;64.93;98706.20;446984;1268;142689;-64
2022/04/09 22:41:10;;;;;;;7.00;3.70;;;;;;;1.36;65.51;98716.44;447867;1267;143885;-64
2022/04/09 22:51:16;;;;;;;9.80;4.40;;;;;;;1.21;65.93;98730.30;445742;1267;142189;-64
2022/04/09 23:01:22;;;;;;;9.60;5.20;;;;;;;1.12;66.43;98741.02;443540;1267;142170;-64
2022/04/09 23:11:28;;;;;;;12.70;4.30;;;;;;;1.01;66.94;98748.30;448121;1267;141089;-63
2022/04/09 23:21:34;;;;;;;7.60;4.50;;;;;;;0.91;67.29;98751.27;447926;1267;141738;-64
2022/04/09 23:31:41;;;;;;;8.00;4.10;;;;;;;0.83;67.38;98755.55;448048;1266;141828;-67
2022/04/09 23:41:47;;;;;;;7.90;5.80;;;;;;;0.72;67.84;98757.98;448069;1267;142338;-66
2022/04/09 23:51:53;;;;;;;7.00;4.50;;;;;;;0.56;68.34;98766.33;447223;1267;143510;-66
